createdAt,value
2022-12-29T00:00:19.130Z,98309.00
2022-12-29T00:02:49.499Z,98309.97
2022-12-29T00:05:22.166Z,98313.41
2022-12-29T00:07:50.453Z,98325.69
2022-12-29T00:10:19.383Z,98322.25
2022-12-29T00:13:05.261Z,98319.63
2022-12-29T00:15:40.740Z,98339.88
2022-12-29T00:18:11.334Z,98341.00
2022-12-29T00:20:57.682Z,98352.59
2022-12-29T00:23:43.661Z,98347.34
2022-12-29T00:26:33.535Z,98352.59
2022-12-29T00:29:19.114Z,98354.25
2022-12-29T00:32:05.496Z,98358.53
2022-12-29T00:34:52.844Z,98359.34
2022-12-29T00:37:41.706Z,98371.31
2022-12-29T00:40:28.225Z,98374.06
2022-12-29T00:43:13.771Z,98377.94
2022-12-29T00:45:43.645Z,98389.78
2022-12-29T00:48:12.289Z,98391.44
2022-12-29T00:50:41.192Z,98391.59
2022-12-29T00:53:10.864Z,98396.00
2022-12-29T00:55:40.383Z,98387.44
2022-12-29T00:58:09.093Z,98392.84
2022-12-29T01:00:37.758Z,98395.44
2022-12-29T01:03:06.262Z,98390.22
2022-12-29T01:05:39.275Z,98395.72
2022-12-29T01:08:09.200Z,98393.09
2022-12-29T01:10:37.894Z,98407.88
2022-12-29T01:13:06.823Z,98393.97
2022-12-29T01:15:35.315Z,98394.78
2022-12-29T01:18:03.794Z,98410.09
2022-12-29T01:20:32.948Z,98399.47
2022-12-29T01:23:02.583Z,98398.91
2022-12-29T01:25:32.847Z,98408.69
2022-12-29T01:28:02.352Z,98399.63
2022-12-29T01:30:31.160Z,98394.38
2022-12-29T01:32:59.890Z,98410.34
2022-12-29T01:35:28.632Z,98403.31
2022-12-29T01:37:57.541Z,98421.41
2022-12-29T01:40:26.448Z,98426.63
2022-12-29T01:42:56.520Z,98419.00
2022-12-29T01:45:25.546Z,98415.19
2022-12-29T01:47:58.062Z,98418.47
2022-12-29T01:50:36.230Z,98417.38
2022-12-29T01:53:09.977Z,98426.75
2022-12-29T01:55:44.129Z,98443.00
2022-12-29T01:58:16.059Z,98435.41
2022-12-29T02:00:46.110Z,98437.50
2022-12-29T02:03:14.961Z,98440.13
2022-12-29T02:05:48.374Z,98452.81
2022-12-29T02:08:17.825Z,98448.66
2022-12-29T02:10:47.590Z,98461.09
2022-12-29T02:13:20.448Z,98459.56
2022-12-29T02:15:59.295Z,98469.59
2022-12-29T02:18:40.181Z,98471.25
2022-12-29T02:21:51.142Z,98454.06
2022-12-29T02:24:53.495Z,98462.16
2022-12-29T02:27:36.868Z,98470.44
2022-12-29T02:30:14.411Z,98464.50
2022-12-29T02:32:54.704Z,98477.19
2022-12-29T02:35:33.378Z,98482.56
2022-12-29T02:38:16.747Z,98470.69
2022-12-29T02:40:54.071Z,98475.50
2022-12-29T02:43:29.460Z,98474.16
2022-12-29T02:46:03.222Z,98483.78
2022-12-29T02:48:40.792Z,98494.94
2022-12-29T02:51:15.621Z,98487.50
2022-12-29T02:54:02.128Z,98508.84
2022-12-29T02:56:33.777Z,98524.44
2022-12-29T02:59:05.660Z,98498.53
2022-12-29T03:02:09.151Z,98511.63
2022-12-29T03:04:50.639Z,98511.22
2022-12-29T03:07:27.069Z,98503.09
2022-12-29T03:10:06.867Z,98514.22
2022-12-29T03:13:02.109Z,98514.09
2022-12-29T03:15:54.331Z,98519.47
2022-12-29T03:18:27.657Z,98542.47
2022-12-29T03:21:05.728Z,98509.66
2022-12-29T03:23:36.650Z,98520.28
2022-12-29T03:26:11.202Z,98509.66
2022-12-29T03:28:43.580Z,98516.69
2022-12-29T03:31:14.797Z,98528.03
2022-12-29T03:33:47.483Z,98556.53
2022-12-29T03:36:24.080Z,98552.25
2022-12-29T03:39:00.868Z,98544.97
2022-12-29T03:41:34.532Z,98559.44
2022-12-29T03:44:03.128Z,98597.19
2022-12-29T03:46:31.763Z,98587.41
2022-12-29T03:49:00.722Z,98583.44
2022-12-29T03:51:32.647Z,98585.63
2022-12-29T03:54:05.822Z,98613.75
2022-12-29T03:56:34.471Z,98601.63
2022-12-29T03:59:03.391Z,98621.03
2022-12-29T04:01:33.142Z,98613.75
2022-12-29T04:04:01.852Z,98628.06
2022-12-29T04:06:34.105Z,98629.31
2022-12-29T04:09:02.721Z,98616.63
2022-12-29T04:11:33.264Z,98643.66
2022-12-29T04:14:03.393Z,98619.41
2022-12-29T04:16:32.199Z,98648.06
2022-12-29T04:19:00.603Z,98643.78
2022-12-29T04:21:29.351Z,98648.91
2022-12-29T04:24:00.007Z,98643.53
2022-12-29T04:26:28.895Z,98638.69
2022-12-29T04:28:57.313Z,98649.84
2022-12-29T04:31:26.107Z,98658.94
2022-12-29T04:33:58.327Z,98660.88
2022-12-29T04:36:30.059Z,98656.47
2022-12-29T04:39:00.854Z,98679.88
2022-12-29T04:41:30.702Z,98662.53
2022-12-29T04:43:59.526Z,98674.81
2022-12-29T04:46:28.065Z,98702.94
2022-12-29T04:48:56.413Z,98677.41
2022-12-29T04:51:25.895Z,98675.63
2022-12-29T04:53:54.352Z,98693.28
2022-12-29T04:56:25.111Z,98678.09
2022-12-29T04:58:53.833Z,98683.22
2022-12-29T05:01:22.815Z,98722.47
2022-12-29T05:03:52.755Z,98693.69
2022-12-29T05:06:21.358Z,98695.88
2022-12-29T05:08:50.326Z,98697.94
2022-12-29T05:11:18.796Z,98713.22
2022-12-29T05:13:49.423Z,98707.75
2022-12-29T05:16:18.407Z,98730.06
2022-12-29T05:18:47.386Z,98702.50
2022-12-29T05:21:15.917Z,98723.84
2022-12-29T05:23:44.499Z,98705.63
2022-12-29T05:26:13.057Z,98695.72
2022-12-29T05:28:41.713Z,98697.06
2022-12-29T05:31:12.022Z,98715.66
2022-12-29T05:33:40.763Z,98711.09
2022-12-29T05:36:11.250Z,98695.94
2022-12-29T05:38:40.163Z,98699.53
2022-12-29T05:41:08.538Z,98710.38
2022-12-29T05:43:37.009Z,98707.63
2022-12-29T05:46:06.135Z,98713.25
2022-12-29T05:48:38.350Z,98712.63
2022-12-29T05:51:09.045Z,98717.53
2022-12-29T05:53:37.812Z,98755.84
2022-12-29T05:56:06.516Z,98701.56
2022-12-29T05:58:34.930Z,98706.38
2022-12-29T06:01:03.874Z,98716.72
2022-12-29T06:03:32.521Z,98707.84
2022-12-29T06:06:02.625Z,98720.00
2022-12-29T06:08:31.222Z,98731.69
2022-12-29T06:11:00.288Z,98718.88
2022-12-29T06:13:29.945Z,98725.91
2022-12-29T06:15:58.923Z,98732.13
2022-12-29T06:18:27.301Z,98737.06
2022-12-29T06:20:55.951Z,98743.69
2022-12-29T06:23:25.859Z,98719.47
2022-12-29T06:25:55.249Z,98724.53
2022-12-29T06:28:24.116Z,98720.94
2022-12-29T06:30:52.669Z,98740.59
2022-12-29T06:33:22.074Z,98730.56
2022-12-29T06:35:50.741Z,98733.91
2022-12-29T06:38:19.213Z,98725.91
2022-12-29T06:40:49.276Z,98728.94
2022-12-29T06:43:17.809Z,98746.72
2022-12-29T06:45:46.584Z,98740.66
2022-12-29T06:48:15.576Z,98740.41
2022-12-29T06:50:43.876Z,98760.63
2022-12-29T06:53:12.820Z,98750.28
2022-12-29T06:55:41.721Z,98755.47
2022-12-29T06:58:11.551Z,98753.13
2022-12-29T07:00:40.651Z,98790.19
2022-12-29T07:03:09.274Z,98777.97
2022-12-29T07:05:37.846Z,98771.19
2022-12-29T07:08:06.893Z,98765.25
2022-12-29T07:10:36.268Z,98783.09
2022-12-29T07:13:05.004Z,98780.50
2022-12-29T07:15:35.188Z,98790.28
2022-12-29T07:18:04.312Z,98785.88
2022-12-29T07:20:32.910Z,98786.09
2022-12-29T07:23:01.529Z,98800.06
2022-12-29T07:25:30.686Z,98790.78
2022-12-29T07:27:59.032Z,98799.91
2022-12-29T07:30:27.668Z,98805.38
2022-12-29T07:32:57.850Z,98803.88
2022-12-29T07:35:26.898Z,98798.19
2022-12-29T07:37:55.506Z,98799.72
2022-12-29T07:40:24.196Z,98789.50
2022-12-29T07:42:54.220Z,98800.47
2022-12-29T07:45:22.735Z,98792.50
2022-12-29T07:47:51.609Z,98802.72
2022-12-29T07:50:21.493Z,98823.63
2022-12-29T07:52:50.596Z,98809.34
2022-12-29T07:55:19.477Z,98834.09
2022-12-29T07:57:47.982Z,98813.41
2022-12-29T08:00:17.556Z,98817.81
2022-12-29T08:02:46.122Z,98805.09
2022-12-29T08:05:14.729Z,98816.31
2022-12-29T08:07:46.056Z,98812.28
2022-12-29T08:10:15.860Z,98822.50
2022-12-29T08:12:44.953Z,98825.81
2022-12-29T08:15:14.900Z,98829.09
2022-12-29T08:17:43.524Z,98834.28
2022-12-29T08:20:16.035Z,98827.97
2022-12-29T08:22:46.077Z,98848.66
2022-12-29T08:25:15.067Z,98825.56
2022-12-29T08:27:43.474Z,98836.84
2022-12-29T08:30:13.828Z,98830.53
2022-12-29T08:32:42.410Z,98832.59
2022-12-29T08:35:12.054Z,98852.78
2022-12-29T08:37:41.699Z,98833.88
2022-12-29T08:40:12.927Z,98843.66
2022-12-29T08:42:41.527Z,98847.09
2022-12-29T08:45:11.408Z,98820.72
2022-12-29T08:47:40.086Z,98858.00
2022-12-29T08:50:10.490Z,98822.59
2022-12-29T08:52:39.256Z,98843.06
2022-12-29T08:55:08.434Z,98860.56
2022-12-29T08:57:38.536Z,98832.47
2022-12-29T09:00:08.944Z,98856.38
2022-12-29T09:02:37.808Z,98851.81
2022-12-29T09:05:07.698Z,98857.03
2022-12-29T09:07:36.453Z,98860.72
2022-12-29T09:10:05.665Z,98874.13
2022-12-29T09:12:36.590Z,98892.06
2022-12-29T09:15:09.043Z,98888.03
2022-12-29T09:17:43.683Z,98888.50
2022-12-29T09:20:14.403Z,98911.44
2022-12-29T09:22:44.311Z,98901.47
2022-12-29T09:25:13.845Z,98908.38
2022-12-29T09:27:43.252Z,98924.50
2022-12-29T09:30:19.305Z,98919.06
2022-12-29T09:32:55.352Z,98929.50
2022-12-29T09:35:24.092Z,98923.44
2022-12-29T09:37:56.929Z,98908.59
2022-12-29T09:40:31.796Z,98955.75
2022-12-29T09:43:17.494Z,98916.53
2022-12-29T09:45:53.365Z,98915.25
2022-12-29T09:48:26.537Z,98926.53
2022-12-29T09:51:00.275Z,98937.72
2022-12-29T09:53:33.045Z,98932.34
2022-12-29T09:56:04.886Z,98948.41
2022-12-29T09:58:41.826Z,98956.63
2022-12-29T10:01:27.499Z,98963.81
2022-12-29T10:03:58.917Z,98966.00
2022-12-29T10:06:38.269Z,98978.47
2022-12-29T10:09:22.778Z,98980.34
2022-12-29T10:12:06.001Z,98977.19
2022-12-29T10:14:48.962Z,98975.25
2022-12-29T10:17:37.022Z,98995.44
2022-12-29T10:20:23.324Z,99007.41
2022-12-29T10:23:25.034Z,99024.66
2022-12-29T10:25:57.611Z,99031.00
2022-12-29T10:28:35.986Z,99030.78
2022-12-29T10:31:09.076Z,99036.97
2022-12-29T10:33:44.118Z,99036.59
2022-12-29T10:36:19.224Z,99036.22
2022-12-29T10:38:56.410Z,99054.19
2022-12-29T10:41:31.235Z,99077.81
2022-12-29T10:44:03.714Z,99059.63
2022-12-29T10:46:36.032Z,99047.50
2022-12-29T10:49:07.188Z,99074.00
2022-12-29T10:51:41.194Z,99081.03
2022-12-29T10:54:17.491Z,99073.31
2022-12-29T10:56:53.513Z,99081.41
2022-12-29T10:59:25.321Z,99097.22
2022-12-29T11:02:03.281Z,99084.97
2022-12-29T11:04:46.113Z,99105.91
2022-12-29T11:07:16.261Z,99079.38
2022-12-29T11:09:46.623Z,99081.38
2022-12-29T11:12:25.565Z,99075.16
2022-12-29T11:15:16.665Z,99087.75
2022-12-29T11:17:51.215Z,99094.91
2022-12-29T11:20:35.276Z,99098.97
2022-12-29T11:23:23.642Z,99101.47
2022-12-29T11:26:16.732Z,99111.81
2022-12-29T11:28:50.459Z,99104.13
2022-12-29T11:31:21.841Z,99114.25
2022-12-29T11:33:50.246Z,99108.03
2022-12-29T11:36:25.302Z,99108.78
2022-12-29T11:38:55.925Z,99110.81
2022-12-29T11:41:27.267Z,99123.22
2022-12-29T11:43:58.217Z,99109.75
2022-12-29T11:46:29.279Z,99136.72
2022-12-29T11:49:02.782Z,99119.78
2022-12-29T11:51:40.992Z,99139.81
2022-12-29T11:54:15.189Z,99138.72
2022-12-29T11:56:46.091Z,99146.22
2022-12-29T11:59:42.718Z,99133.94
2022-12-29T12:02:38.780Z,99142.56
2022-12-29T12:05:20.749Z,99134.31
2022-12-29T12:07:55.214Z,99146.06
2022-12-29T12:10:31.007Z,99145.09
2022-12-29T12:13:08.639Z,99112.88
2022-12-29T12:15:46.678Z,99135.22
2022-12-29T12:18:24.788Z,99134.06
2022-12-29T12:20:59.729Z,99154.41
2022-12-29T12:23:43.765Z,99131.63
2022-12-29T12:26:17.684Z,99143.06
2022-12-29T12:28:55.464Z,99149.59
2022-12-29T12:31:36.649Z,99141.66
2022-12-29T12:34:13.123Z,99138.50
2022-12-29T12:37:05.253Z,99147.91
2022-12-29T12:39:46.899Z,99140.31
2022-12-29T12:42:30.498Z,99155.13
2022-12-29T12:45:23.547Z,99159.38
2022-12-29T12:48:07.261Z,99161.53
2022-12-29T12:50:51.787Z,99162.44
2022-12-29T12:53:41.563Z,99156.97
2022-12-29T12:56:31.354Z,99188.72
2022-12-29T12:59:10.222Z,99165.00
2022-12-29T13:01:49.311Z,99168.97
2022-12-29T13:04:40.772Z,99169.81
2022-12-29T13:07:22.437Z,99184.69
2022-12-29T13:10:04.932Z,99171.75
2022-12-29T13:12:45.251Z,99184.09
2022-12-29T13:15:29.175Z,99208.25
2022-12-29T13:18:06.114Z,99208.84
2022-12-29T13:20:45.498Z,99213.00
2022-12-29T13:23:24.555Z,99224.63
2022-12-29T13:25:58.192Z,99223.13
2022-12-29T13:28:34.314Z,99257.22
2022-12-29T13:31:14.456Z,99236.97
2022-12-29T13:33:52.269Z,99243.41
2022-12-29T13:36:27.593Z,99257.22
2022-12-29T13:39:08.181Z,99261.38
2022-12-29T13:41:50.266Z,99254.59
2022-12-29T13:44:25.087Z,99263.94
2022-12-29T13:46:57.296Z,99274.09
2022-12-29T13:49:26.601Z,99255.66
2022-12-29T13:51:57.733Z,99273.72
2022-12-29T13:54:40.095Z,99268.00
2022-12-29T13:57:13.467Z,99279.69
2022-12-29T13:59:53.544Z,99263.13
2022-12-29T14:02:34.334Z,99292.41
2022-12-29T14:05:07.228Z,99254.22
2022-12-29T14:07:41.130Z,99274.22
2022-12-29T14:10:31.672Z,99272.09
2022-12-29T14:13:09.124Z,99256.69
2022-12-29T14:15:43.655Z,99294.50
2022-12-29T14:18:19.507Z,99276.00
2022-12-29T14:20:56.527Z,99272.94
2022-12-29T14:23:41.060Z,99282.09
2022-12-29T14:26:38.094Z,99271.47
2022-12-29T14:29:34.417Z,99281.63
2022-12-29T14:32:05.005Z,99282.69
2022-12-29T14:34:43.671Z,99279.03
2022-12-29T14:37:28.191Z,99286.88
2022-12-29T14:40:09.423Z,99282.72
2022-12-29T14:42:41.605Z,99286.50
2022-12-29T14:45:29.163Z,99279.50
2022-12-29T14:48:00.411Z,99291.81
2022-12-29T14:50:45.012Z,99287.94
2022-12-29T14:53:52.434Z,99304.53
2022-12-29T14:56:22.665Z,99301.06
2022-12-29T14:58:55.219Z,99308.81
2022-12-29T15:01:29.283Z,99303.47
2022-12-29T15:04:06.025Z,99325.03
2022-12-29T15:06:40.978Z,99308.25
2022-12-29T15:09:22.866Z,99308.47
2022-12-29T15:11:55.524Z,99307.06
2022-12-29T15:14:36.313Z,99316.44
2022-12-29T15:17:26.315Z,99321.59
2022-12-29T15:19:57.537Z,99323.25
2022-12-29T15:22:26.972Z,99329.78
2022-12-29T15:24:57.349Z,99327.41
2022-12-29T15:27:27.532Z,99325.34
2022-12-29T15:30:02.939Z,99330.25
2022-12-29T15:32:41.389Z,99336.41
2022-12-29T15:35:26.879Z,99333.44
2022-12-29T15:37:55.350Z,99355.53
2022-12-29T15:40:26.687Z,99348.88
2022-12-29T15:43:25.267Z,99355.53
2022-12-29T15:45:56.432Z,99380.94
2022-12-29T15:48:27.163Z,99361.69
2022-12-29T15:50:57.065Z,99365.72
2022-12-29T15:53:29.603Z,99373.56
2022-12-29T15:56:03.656Z,99379.25
2022-12-29T15:58:33.725Z,99374.94
2022-12-29T16:01:04.108Z,99369.34
2022-12-29T16:03:39.943Z,99377.91
2022-12-29T16:06:29.277Z,99372.81
2022-12-29T16:09:03.789Z,99374.59
2022-12-29T16:11:36.973Z,99370.81
2022-12-29T16:14:10.970Z,99363.78
2022-12-29T16:16:41.845Z,99359.03
2022-12-29T16:19:15.929Z,99376.13
2022-12-29T16:21:47.728Z,99378.66
2022-12-29T16:24:19.798Z,99391.06
2022-12-29T16:26:51.147Z,99387.59
2022-12-29T16:29:23.642Z,99400.19
2022-12-29T16:32:01.522Z,99392.34
2022-12-29T16:34:33.066Z,99400.06
2022-12-29T16:37:05.084Z,99400.28
2022-12-29T16:39:36.869Z,99402.91
2022-12-29T16:42:36.870Z,99409.78
2022-12-29T16:45:58.717Z,99427.41
2022-12-29T16:48:29.997Z,99438.56
2022-12-29T16:51:05.295Z,99431.59
2022-12-29T16:53:38.970Z,99436.19
2022-12-29T16:56:15.834Z,99439.16
2022-12-29T16:58:49.504Z,99438.72
2022-12-29T17:01:20.422Z,99438.53
2022-12-29T17:03:53.235Z,99449.34
2022-12-29T17:06:23.781Z,99454.09
2022-12-29T17:08:54.237Z,99454.09
2022-12-29T17:11:45.967Z,99451.59
2022-12-29T17:14:37.196Z,99447.06
2022-12-29T17:17:07.875Z,99465.72
2022-12-29T17:19:38.921Z,99463.34
2022-12-29T17:22:14.302Z,99467.50
2022-12-29T17:24:44.282Z,99470.91
2022-12-29T17:27:24.207Z,99476.94
2022-12-29T17:29:55.526Z,99482.38
2022-12-29T17:32:23.980Z,99487.53
2022-12-29T17:34:52.468Z,99496.09
2022-12-29T17:37:38.916Z,99482.94
2022-12-29T17:40:15.377Z,99474.47
2022-12-29T17:42:47.001Z,99469.00
2022-12-29T17:45:18.286Z,99474.53
2022-12-29T17:47:46.906Z,99474.78
2022-12-29T17:50:17.468Z,99488.69
2022-12-29T17:52:51.634Z,99477.91
2022-12-29T17:55:24.200Z,99480.69
2022-12-29T17:57:53.185Z,99478.91
2022-12-29T18:00:24.430Z,99474.75
2022-12-29T18:02:53.626Z,99482.94
2022-12-29T18:05:25.433Z,99475.47
2022-12-29T18:07:56.390Z,99466.56
2022-12-29T18:10:28.356Z,99462.91
2022-12-29T18:13:00.669Z,99471.69
2022-12-29T18:15:31.160Z,99474.94
2022-12-29T18:18:02.766Z,99467.16
2022-12-29T18:20:32.021Z,99492.50
2022-12-29T18:23:00.530Z,99464.88
2022-12-29T18:25:41.190Z,99465.91
2022-12-29T18:28:09.904Z,99466.97
2022-12-29T18:30:39.582Z,99475.75
2022-12-29T18:33:08.091Z,99483.69
2022-12-29T18:35:41.289Z,99477.31
2022-12-29T18:38:10.655Z,99470.91
2022-12-29T18:40:41.004Z,99470.38
2022-12-29T18:43:11.263Z,99461.34
2022-12-29T18:45:40.147Z,99457.06
2022-12-29T18:48:08.768Z,99457.06
2022-12-29T18:50:37.369Z,99446.41
2022-12-29T18:53:07.037Z,99439.09
2022-12-29T18:55:36.094Z,99443.59
2022-12-29T18:58:05.993Z,99460.44
2022-12-29T19:00:34.587Z,99455.34
2022-12-29T19:03:03.366Z,99445.50
2022-12-29T19:05:37.197Z,99451.72
2022-12-29T19:08:06.322Z,99442.13
2022-12-29T19:10:35.242Z,99442.72
2022-12-29T19:13:03.923Z,99428.47
2022-12-29T19:15:35.702Z,99419.31
2022-12-29T19:20:58.297Z,99414.91
2022-12-29T19:23:28.838Z,99404.56
2022-12-29T19:25:57.846Z,99406.94
2022-12-29T19:28:28.548Z,99401.81
2022-12-29T19:31:02.278Z,99399.31
2022-12-29T19:33:31.037Z,99384.53
2022-12-29T19:36:02.817Z,99362.78
2022-12-29T19:38:31.586Z,99367.91
2022-12-29T19:41:00.166Z,99354.22
2022-12-29T19:43:28.814Z,99349.34
2022-12-29T19:45:59.179Z,99345.69
2022-12-29T19:48:27.761Z,99337.97
2022-12-29T19:50:56.352Z,99325.94
2022-12-29T19:53:24.941Z,99316.16
2022-12-29T19:55:53.497Z,99308.31
2022-12-29T19:58:22.234Z,99303.59
2022-12-29T20:00:51.644Z,99292.38
2022-12-29T20:03:21.888Z,99294.88
2022-12-29T20:05:51.867Z,99290.84
2022-12-29T20:08:20.543Z,99300.50
2022-12-29T20:10:59.371Z,99296.09
2022-12-29T20:13:27.993Z,99294.53
2022-12-29T20:16:01.498Z,99295.97
2022-12-29T20:18:32.891Z,99292.28
2022-12-29T20:21:05.956Z,99293.13
2022-12-29T20:23:36.794Z,99286.69
2022-12-29T20:26:06.495Z,99283.16
2022-12-29T20:28:35.332Z,99276.94
2022-12-29T20:31:07.895Z,99263.63
2022-12-29T20:33:38.510Z,99256.56
2022-12-29T20:36:10.002Z,99252.06
2022-12-29T20:38:39.275Z,99246.34
2022-12-29T20:41:08.067Z,99252.53
2022-12-29T20:43:36.596Z,99245.97
2022-12-29T20:46:05.520Z,99238.44
2022-12-29T20:48:35.955Z,99220.09
2022-12-29T20:51:06.536Z,99208.88
2022-12-29T20:53:37.582Z,99200.28
2022-12-29T20:56:08.708Z,99197.44
2022-12-29T20:58:59.921Z,99186.72
2022-12-29T21:01:27.249Z,99181.66
2022-12-29T21:03:56.202Z,99178.81
2022-12-29T21:06:26.247Z,99177.38
2022-12-29T21:08:55.530Z,99172.41
2022-12-29T21:11:24.578Z,99160.91
2022-12-29T21:13:53.212Z,99156.00
2022-12-29T21:16:22.297Z,99152.28
2022-12-29T21:18:52.448Z,99151.59
2022-12-29T21:21:22.846Z,99133.63
2022-12-29T21:23:53.673Z,99123.38
2022-12-29T21:26:24.729Z,99119.09
2022-12-29T21:28:53.803Z,99112.06
2022-12-29T21:31:28.774Z,99106.69
2022-12-29T21:33:58.958Z,99091.13
2022-12-29T21:36:28.026Z,99088.72
2022-12-29T21:38:59.624Z,99081.84
2022-12-29T21:41:28.395Z,99071.59
2022-12-29T21:44:14.322Z,99073.53
2022-12-29T21:46:44.496Z,99060.94
2022-12-29T21:49:13.157Z,99052.75
2022-12-29T21:51:54.319Z,99050.66
2022-12-29T21:54:44.987Z,99033.53
2022-12-29T21:57:36.212Z,99019.59
2022-12-29T22:00:24.077Z,99004.84
2022-12-29T22:03:16.490Z,98992.97
2022-12-29T22:06:06.368Z,98979.28
2022-12-29T22:08:52.017Z,98958.59
2022-12-29T22:11:39.399Z,98948.50
2022-12-29T22:14:09.195Z,98945.19
2022-12-29T22:16:37.965Z,98932.09
2022-12-29T22:19:08.127Z,98920.66
2022-12-29T22:21:36.719Z,98913.06
2022-12-29T22:24:05.423Z,98898.06
2022-12-29T22:26:35.559Z,98885.66
2022-12-29T22:29:04.190Z,98877.81
2022-12-29T22:31:34.106Z,98866.72
2022-12-29T22:34:04.732Z,98848.53
2022-12-29T22:36:33.771Z,98834.31
2022-12-29T22:39:02.711Z,98816.44
2022-12-29T22:41:31.389Z,98812.34
2022-12-29T22:44:01.450Z,98806.84
2022-12-29T22:46:30.021Z,98804.66
2022-12-29T22:48:59.140Z,98787.59
2022-12-29T22:51:27.801Z,98777.81
2022-12-29T22:53:56.529Z,98770.00
2022-12-29T22:56:25.391Z,98768.53
2022-12-29T22:58:54.772Z,98753.88
2022-12-29T23:01:25.379Z,98727.53
2022-12-29T23:04:11.078Z,98730.44
2022-12-29T23:06:43.668Z,98695.59
2022-12-29T23:09:18.185Z,98689.56
2022-12-29T23:11:47.267Z,98698.56
2022-12-29T23:14:17.396Z,98670.31
2022-12-29T23:16:47.870Z,98649.69
2022-12-29T23:19:16.497Z,98650.72
2022-12-29T23:21:45.187Z,98653.78
2022-12-29T23:24:15.550Z,98642.41
2022-12-29T23:26:45.830Z,98629.44
2022-12-29T23:29:16.684Z,98630.19
2022-12-29T23:31:47.126Z,98613.66
2022-12-29T23:34:16.902Z,98628.03
2022-12-29T23:36:45.568Z,98568.94
2022-12-29T23:39:21.144Z,98576.63
2022-12-29T23:41:49.793Z,98585.72
2022-12-29T23:44:18.255Z,98571.38
2022-12-29T23:46:48.059Z,98578.13
2022-12-29T23:49:16.609Z,98577.69
2022-12-29T23:51:45.359Z,98547.47
2022-12-29T23:54:14.063Z,98577.56
2022-12-29T23:56:42.595Z,98526.78
2022-12-29T23:59:10.959Z,98534.72
